Time;durP1;ratioP1;P1;durP2;ratioP2;P2;SDS_P1;SDS_P2;PMS_P1;PMS_P2;Temp;Humidity;BMP_temperature;BMP_pressure;BME280_temperature;BME280_humidity;BME280_pressure;Samples;Min_cycle;Max_cycle;Signal;HPM_P1;HPM_P2
2022/01/05 00:04:14;;;;;;;;;;;;;;;21.78;34.81;94098.31;10402257;28;1840;-62
2022/01/05 00:09:14;;;;;;;;;;;;;;;21.79;34.45;94104.38;10416789;28;1831;-63
2022/01/05 00:14:14;;;;;;;;;;;;;;;21.78;34.64;94122.06;10415136;28;1922;-63
2022/01/05 00:19:15;;;;;;;;;;;;;;;21.75;34.08;94138.53;10410527;28;1895;-62
2022/01/05 00:24:16;;;;;;;;;;;;;;;21.74;33.71;94147.53;10413184;28;1899;-62
2022/01/05 00:29:16;;;;;;;;;;;;;;;21.79;34.28;94151.84;10409701;28;1841;-62
2022/01/05 00:34:16;;;;;;;;;;;;;;;21.78;33.82;94155.59;10416463;28;1969;-62
2022/01/05 00:39:17;;;;;;;;;;;;;;;21.76;34.31;94163.06;10402801;28;2038;-63
2022/01/05 00:44:19;;;;;;;;;;;;;;;21.77;33.86;94175.13;10419208;28;2160;-62
2022/01/05 00:49:19;;;;;;;;;;;;;;;21.76;34.02;94184.16;10409928;28;1790;-63
2022/01/05 00:54:19;;;;;;;;;;;;;;;21.77;33.49;94188.31;10419444;28;1973;-63
2022/01/05 00:59:20;;;;;;;;;;;;;;;21.76;33.95;94179.63;10412507;28;2138;-62
2022/01/05 01:04:20;;;;;;;;;;;;;;;21.76;33.52;94186.78;10417017;28;1845;-63
2022/01/05 01:09:21;;;;;;;;;;;;;;;21.75;33.53;94187.88;10409076;28;1864;-62
2022/01/05 01:14:21;;;;;;;;;;;;;;;21.72;33.49;94193.78;10417114;28;1968;-62
2022/01/05 01:19:21;;;;;;;;;;;;;;;21.75;32.90;94195.78;10403943;28;1789;-62
2022/01/05 01:24:22;;;;;;;;;;;;;;;21.76;33.55;94207.88;10412764;28;1840;-62
2022/01/05 01:29:22;;;;;;;;;;;;;;;21.74;33.46;94218.75;10413119;28;1897;-63
2022/01/05 01:34:23;;;;;;;;;;;;;;;21.71;32.84;94223.88;10415625;28;1979;-63
2022/01/05 01:39:23;;;;;;;;;;;;;;;21.71;32.58;94229.16;10413266;28;1856;-61
2022/01/05 01:44:24;;;;;;;;;;;;;;;21.70;33.15;94222.34;10417167;28;2044;-62
2022/01/05 01:49:24;;;;;;;;;;;;;;;21.70;32.95;94231.00;10418457;28;1857;-60
2022/01/05 01:54:24;;;;;;;;;;;;;;;21.70;33.01;94230.25;10422079;28;2084;-62
2022/01/05 01:59:25;;;;;;;;;;;;;;;21.69;32.61;94215.50;10399777;28;1841;-62
2022/01/05 02:04:26;;;;;;;;;;;;;;;21.70;32.99;94219.72;10417339;28;1912;-62
2022/01/05 02:09:27;;;;;;;;;;;;;;;21.68;32.67;94220.00;10416816;28;1812;-62
2022/01/05 02:14:28;;;;;;;;;;;;;;;21.66;32.67;94222.19;10418441;28;2085;-63
2022/01/05 02:19:28;;;;;;;;;;;;;;;21.67;32.82;94223.75;10414727;28;1837;-62
2022/01/05 02:24:29;;;;;;;;;;;;;;;21.67;32.69;94225.59;10415923;28;2013;-62
2022/01/05 02:29:30;;;;;;;;;;;;;;;21.63;32.90;94222.84;10416937;28;1786;-63
2022/01/05 02:34:30;;;;;;;;;;;;;;;21.66;32.47;94205.59;10417533;28;1967;-63
2022/01/05 02:39:30;;;;;;;;;;;;;;;21.63;33.15;94222.84;10418243;28;1809;-63
2022/01/05 02:44:31;;;;;;;;;;;;;;;21.64;32.24;94215.69;10417222;28;1817;-63
2022/01/05 02:49:31;;;;;;;;;;;;;;;21.66;32.24;94229.31;10413825;28;1726;-63
2022/01/05 02:54:31;;;;;;;;;;;;;;;21.65;32.16;94230.41;10417028;28;1969;-63
2022/01/05 02:59:32;;;;;;;;;;;;;;;21.59;32.33;94227.19;10413835;28;1849;-62
2022/01/05 03:04:32;;;;;;;;;;;;;;;21.62;32.51;94228.41;10415165;28;1849;-63
2022/01/05 03:09:33;;;;;;;;;;;;;;;21.61;32.13;94218.97;10418508;28;2052;-61
2022/01/05 03:14:33;;;;;;;;;;;;;;;21.63;32.21;94214.91;10417337;28;1963;-62
2022/01/05 03:19:34;;;;;;;;;;;;;;;21.64;32.07;94228.84;10411480;28;1891;-61
2022/01/05 03:24:34;;;;;;;;;;;;;;;21.59;31.87;94231.69;10413908;28;1799;-62
2022/01/05 03:29:34;;;;;;;;;;;;;;;21.60;32.17;94233.22;10410598;28;1820;-62
2022/01/05 03:34:37;;;;;;;;;;;;;;;21.59;32.37;94231.69;10413803;28;1918;-61
2022/01/05 03:39:38;;;;;;;;;;;;;;;21.54;31.68;94237.91;10408778;28;1857;-61
2022/01/05 03:44:39;;;;;;;;;;;;;;;21.60;32.27;94243.75;10411192;28;1814;-61
2022/01/05 03:49:39;;;;;;;;;;;;;;;21.55;32.15;94241.31;10413034;28;1892;-61
2022/01/05 03:54:40;;;;;;;;;;;;;;;21.56;31.87;94240.22;10414852;28;1972;-62
2022/01/05 03:59:40;;;;;;;;;;;;;;;21.54;31.70;94245.03;10412345;28;1838;-62
2022/01/05 04:04:41;;;;;;;;;;;;;;;21.52;31.89;94248.00;10412320;28;1858;-62
2022/01/05 04:09:41;;;;;;;;;;;;;;;21.51;31.77;94248.31;10402267;28;1793;-63
2022/01/05 04:14:42;;;;;;;;;;;;;;;21.50;31.63;94242.25;10415684;28;1907;-63
2022/01/05 04:19:42;;;;;;;;;;;;;;;21.49;32.05;94248.63;10410308;28;1817;-62
2022/01/05 04:24:43;;;;;;;;;;;;;;;21.49;31.57;94248.63;10407077;28;1939;-62
2022/01/05 04:29:43;;;;;;;;;;;;;;;21.47;31.70;94255.31;10409077;28;1759;-61
2022/01/05 04:34:44;;;;;;;;;;;;;;;21.49;32.17;94253.91;10416995;28;1973;-61
2022/01/05 04:39:45;;;;;;;;;;;;;;;21.49;32.18;94242.59;10408834;28;2151;-61
2022/01/05 04:44:45;;;;;;;;;;;;;;;21.46;31.57;94241.34;10408511;28;1829;-62
2022/01/05 04:49:45;;;;;;;;;;;;;;;21.46;31.55;94230.78;10411961;28;1830;-62
2022/01/05 04:54:46;;;;;;;;;;;;;;;21.45;31.62;94217.94;10412556;28;1985;-61
2022/01/05 04:59:46;;;;;;;;;;;;;;;21.45;31.37;94217.94;10407954;28;1798;-62
2022/01/05 05:04:47;;;;;;;;;;;;;;;21.46;31.62;94236.06;10407473;28;1849;-61
2022/01/05 05:09:47;;;;;;;;;;;;;;;21.46;31.49;94237.94;10404615;28;2136;-63
2022/01/05 05:14:48;;;;;;;;;;;;;;;21.44;31.45;94235.59;10410926;28;1914;-61
2022/01/05 05:19:48;;;;;;;;;;;;;;;21.44;31.34;94242.75;10413346;28;1875;-61
2022/01/05 05:24:48;;;;;;;;;;;;;;;21.44;31.21;94240.09;10417488;28;2139;-61
2022/01/05 05:29:49;;;;;;;;;;;;;;;21.44;31.34;94240.88;10413792;28;2034;-62
2022/01/05 05:34:50;;;;;;;;;;;;;;;21.44;31.29;94248.00;10417555;28;2131;-62
2022/01/05 05:39:50;;;;;;;;;;;;;;;21.44;31.29;94245.38;10415398;28;1853;-63
2022/01/05 05:44:50;;;;;;;;;;;;;;;21.43;31.25;94244.59;10418008;28;1984;-62
2022/01/05 05:49:51;;;;;;;;;;;;;;;21.45;31.17;94242.41;10416270;28;1757;-61
2022/01/05 05:54:52;;;;;;;;;;;;;;;21.44;31.65;94248.78;10419435;28;1915;-61
2022/01/05 05:59:53;;;;;;;;;;;;;;;21.42;31.52;94247.53;10414926;28;2099;-62
2022/01/05 06:04:54;;;;;;;;;;;;;;;21.42;31.64;94256.25;10410297;28;1982;-62
2022/01/05 06:09:54;;;;;;;;;;;;;;;21.41;31.51;94246.78;10410716;28;1921;-61
2022/01/05 06:14:54;;;;;;;;;;;;;;;21.40;31.32;94250.50;10415589;28;1918;-62
2022/01/05 06:19:55;;;;;;;;;;;;;;;21.41;31.14;94256.56;10411743;28;1847;-63
2022/01/05 06:24:55;;;;;;;;;;;;;;;21.42;31.43;94260.72;10416176;28;1857;-62
2022/01/05 06:29:56;;;;;;;;;;;;;;;21.41;31.38;94267.84;10416494;28;1820;-63
2022/01/05 06:34:57;;;;;;;;;;;;;;;21.41;32.20;94256.56;10413648;28;1942;-61
2022/01/05 06:39:57;;;;;;;;;;;;;;;21.41;31.45;94256.56;10425556;28;1849;-60
2022/01/05 06:44:58;;;;;;;;;;;;;;;21.38;31.32;94257.97;10415032;28;2033;-61
2022/01/05 06:49:58;;;;;;;;;;;;;;;21.38;31.13;94267.72;10415132;28;2134;-62
2022/01/05 06:54:58;;;;;;;;;;;;;;;21.38;31.04;94278.25;10411043;28;1953;-61
2022/01/05 06:59:59;;;;;;;;;;;;;;;21.38;31.21;94279.03;10415280;28;1910;-62
2022/01/05 07:04:59;;;;;;;;;;;;;;;21.38;31.53;94288.81;10417088;28;1868;-62
2022/01/05 07:10:00;;;;;;;;;;;;;;;21.37;31.18;94282.00;10416270;28;1911;-62
2022/01/05 07:15:00;;;;;;;;;;;;;;;21.36;31.34;94281.22;10416429;28;2007;-61
2022/01/05 07:20:01;;;;;;;;;;;;;;;21.41;31.63;94294.22;10416991;28;1872;-62
2022/01/05 07:25:01;;;;;;;;;;;;;;;21.41;31.15;94304.00;10419686;28;1852;-62
2022/01/05 07:30:02;;;;;;;;;;;;;;;21.43;32.14;94299.19;10415087;28;1907;-62
2022/01/05 07:35:03;;;;;;;;;;;;;;;21.42;31.70;94302.91;10394839;28;1902;-62
2022/01/05 07:40:03;;;;;;;;;;;;;;;21.44;32.20;94312.06;10405500;28;1927;-62
2022/01/05 07:45:04;;;;;;;;;;;;;;;21.45;31.38;94320.75;10411823;28;1818;-64
2022/01/05 07:50:09;;;;;;;;;;;;;;;21.44;31.73;94333.16;10410489;28;1868;-64
2022/01/05 07:55:09;;;;;;;;;;;;;;;21.47;31.68;94327.25;10412787;28;1906;-63
2022/01/05 08:00:10;;;;;;;;;;;;;;;21.50;32.40;94344.28;10406498;28;1989;-62
2022/01/05 08:05:11;;;;;;;;;;;;;;;21.49;32.37;94358.59;10409497;28;1844;-62
2022/01/05 08:10:11;;;;;;;;;;;;;;;21.45;32.54;94358.41;10412263;28;1838;-63
2022/01/05 08:15:12;;;;;;;;;;;;;;;21.45;32.11;94362.94;10404071;28;1913;-63
2022/01/05 08:20:12;;;;;;;;;;;;;;;21.43;32.44;94386.94;10400581;28;1829;-62
2022/01/05 08:25:13;;;;;;;;;;;;;;;21.41;31.36;94396.28;10412635;28;1826;-63
2022/01/05 08:30:17;;;;;;;;;;;;;;;21.37;31.73;94406.63;10408362;28;1971;-62
2022/01/05 08:35:18;;;;;;;;;;;;;;;21.37;32.35;94419.06;10405858;28;1977;-63
2022/01/05 08:40:19;;;;;;;;;;;;;;;21.35;31.68;94440.44;10405076;28;1835;-63
2022/01/05 08:45:19;;;;;;;;;;;;;;;21.34;31.48;94446.03;10405814;28;1769;-64
2022/01/05 08:50:20;;;;;;;;;;;;;;;21.33;32.05;94445.25;10400167;28;1901;-63
2022/01/05 08:55:22;;;;;;;;;;;;;;;21.32;31.65;94453.47;10409104;28;2164;-63
2022/01/05 09:00:22;;;;;;;;;;;;;;;21.32;31.58;94442.94;10408215;28;1888;-63
2022/01/05 09:05:23;;;;;;;;;;;;;;;21.39;31.78;94477.53;10404006;28;1798;-63
2022/01/05 09:10:23;;;;;;;;;;;;;;;21.33;31.97;94492.69;10407512;28;1914;-64
2022/01/05 09:15:24;;;;;;;;;;;;;;;21.34;31.71;94499.53;10408426;28;1768;-63
2022/01/05 09:20:24;;;;;;;;;;;;;;;21.32;32.24;94504.34;10406273;28;1798;-63
2022/01/05 09:25:25;;;;;;;;;;;;;;;21.38;32.84;94528.69;10409007;28;2237;-63
2022/01/05 09:30:27;;;;;;;;;;;;;;;21.36;32.12;94536.91;10409164;28;1959;-64
2022/01/05 09:35:27;;;;;;;;;;;;;;;21.33;32.52;94555.94;10407621;28;1793;-63
2022/01/05 09:46:09;;;;;;;;;;;;;;;21.40;32.77;94581.88;10400210;28;1820;-63
2022/01/05 09:51:10;;;;;;;;;;;;;;;21.41;32.77;94601.91;10400126;28;2121;-63
2022/01/05 09:56:10;;;;;;;;;;;;;;;21.43;32.29;94608.38;10403587;28;1833;-62
2022/01/05 10:01:11;;;;;;;;;;;;;;;21.48;32.53;94604.84;10409001;28;1785;-63
2022/01/05 10:06:12;;;;;;;;;;;;;;;21.38;31.16;94613.03;10413769;28;1854;-63
2022/01/05 10:11:12;;;;;;;;;;;;;;;21.32;31.82;94614.25;10414870;28;1878;-63
2022/01/05 10:16:13;;;;;;;;;;;;;;;21.31;31.35;94626.66;10408847;28;1904;-63
2022/01/05 10:21:14;;;;;;;;;;;;;;;21.30;31.19;94626.97;10407146;28;1848;-62
2022/01/05 10:26:20;;;;;;;;;;;;;;;21.30;31.48;94640.13;10411517;28;1761;-63
2022/01/05 10:31:22;;;;;;;;;;;;;;;21.34;31.47;94641.88;10419595;28;1961;-63
2022/01/05 10:36:23;;;;;;;;;;;;;;;21.34;31.48;94641.88;10415071;28;1813;-63
2022/01/05 10:41:25;;;;;;;;;;;;;;;21.38;32.21;94658.63;10413076;28;1752;-63
2022/01/05 10:46:35;;;;;;;;;;;;;;;21.57;34.33;94655.75;10391687;28;1805;-65
2022/01/05 10:51:35;;;;;;;;;;;;;;;21.61;34.11;94659.34;10429396;23;1902;-73
2022/01/05 10:56:36;;;;;;;;;;;;;;;21.56;33.80;94667.38;10425835;28;2343;-73
2022/01/05 11:01:38;;;;;;;;;;;;;;;21.54;32.51;94672.16;10442898;28;1863;-74
2022/01/05 11:06:38;;;;;;;;;;;;;;;21.54;33.91;94672.97;10445240;28;1827;-72
2022/01/05 11:11:40;;;;;;;;;;;;;;;21.52;32.40;94690.94;10427532;28;1918;-72
2022/01/05 11:16:42;;;;;;;;;;;;;;;21.62;34.31;94698.59;10466311;23;1901;-42
2022/01/05 11:22:01;;;;;;;;;;;;;;;21.59;32.91;94707.13;10434963;28;1861;-45
2022/01/05 11:27:02;;;;;;;;;;;;;;;21.69;35.10;94724.50;10435745;28;1808;-39
2022/01/05 11:32:03;;;;;;;;;;;;;;;21.72;35.46;94731.84;10432628;28;1979;-45
2022/01/05 11:37:04;;;;;;;;;;;;;;;21.63;34.26;94738.91;10435608;28;1796;-43
2022/01/05 11:42:10;;;;;;;;;;;;;;;21.59;32.80;94744.03;10440688;28;1886;-47
2022/01/05 11:47:17;;;;;;;;;;;;;;;21.59;32.76;94748.53;10436583;28;1829;-40
2022/01/05 11:52:18;;;;;;;;;;;;;;;21.56;32.35;94755.19;10433007;28;1973;-39
2022/01/05 11:57:18;;;;;;;;;;;;;;;21.49;31.48;94754.06;10439397;28;1686;-40
2022/01/05 12:02:19;;;;;;;;;;;;;;;21.49;31.70;94759.34;10433458;28;1897;-42
2022/01/05 12:07:35;;;;;;;;;;;;;;;21.49;32.25;94756.69;10435387;28;1883;-46
2022/01/05 12:12:36;;;;;;;;;;;;;;;21.44;31.97;94752.31;10430759;28;1937;-42
2022/01/05 12:17:37;;;;;;;;;;;;;;;21.49;32.76;94765.41;10429861;28;1952;-42
2022/01/05 12:22:37;;;;;;;;;;;;;;;21.50;32.51;94774.84;10431204;28;1914;-40
2022/01/05 12:27:54;;;;;;;;;;;;;;;21.45;31.42;94780.22;10434541;28;1808;-40
2022/01/05 12:33:08;;;;;;;;;;;;;;;21.46;31.99;94781.81;10429158;28;1973;-39
2022/01/05 12:38:08;;;;;;;;;;;;;;;21.50;32.40;94788.03;10429025;28;1762;-41
2022/01/05 12:43:09;;;;;;;;;;;;;;;21.45;31.49;94784.75;10425332;28;2053;-40
2022/01/05 12:48:28;;;;;;;;;;;;;;;21.43;32.43;94773.72;10424476;28;1796;-38
2022/01/05 12:53:35;;;;;;;;;;;;;;;21.39;31.03;94778.06;10432015;28;1902;-41
2022/01/05 12:58:35;;;;;;;;;;;;;;;21.45;31.65;94784.75;10426140;28;1688;-43
2022/01/05 13:03:35;;;;;;;;;;;;;;;21.40;30.91;94793.56;10434693;28;1731;-44
2022/01/05 13:08:36;;;;;;;;;;;;;;;21.41;30.86;94810.16;10431723;28;1807;-40
2022/01/05 13:13:39;;;;;;;;;;;;;;;21.42;31.92;94814.34;10433406;28;1964;-42
2022/01/05 13:18:40;;;;;;;;;;;;;;;21.41;31.68;94824.09;10433072;28;1840;-42
2022/01/05 13:23:53;;;;;;;;;;;;;;;21.39;31.53;94828.13;10438309;28;1813;-39
2022/01/05 13:28:53;;;;;;;;;;;;;;;21.35;31.49;94827.19;10432335;28;1832;-44
2022/01/05 13:33:54;;;;;;;;;;;;;;;21.34;30.89;94839.56;10438644;28;1967;-41
2022/01/05 13:38:54;;;;;;;;;;;;;;;21.31;30.88;94842.78;10440315;28;1802;-41
2022/01/05 13:43:54;;;;;;;;;;;;;;;21.37;31.41;94846.13;10443729;28;1795;-41
2022/01/05 13:48:56;;;;;;;;;;;;;;;21.41;31.44;94847.81;10435731;28;1817;-41
2022/01/05 13:53:57;;;;;;;;;;;;;;;21.37;31.47;94846.13;10423007;28;1975;-39
2022/01/05 13:58:57;;;;;;;;;;;;;;;21.35;30.43;94845.63;10422421;28;1927;-38
2022/01/05 14:04:05;;;;;;;;;;;;;;;21.34;30.97;94836.16;10424753;28;1810;-39
2022/01/05 14:09:06;;;;;;;;;;;;;;;21.34;30.68;94846.69;10439731;28;1580;-42
2022/01/05 14:14:09;;;;;;;;;;;;;;;21.36;30.95;94850.59;10426231;28;1940;-40
2022/01/05 14:19:11;;;;;;;;;;;;;;;21.34;31.52;94867.78;10438525;28;1797;-39
2022/01/05 14:24:13;;;;;;;;;;;;;;;21.62;30.65;94870.00;10438284;28;1871;-40
2022/01/05 14:29:14;;;;;;;;;;;;;;;21.65;30.37;94873.91;10440755;28;1811;-45
2022/01/05 14:34:15;;;;;;;;;;;;;;;21.70;30.07;94890.38;10440254;28;1901;-40
2022/01/05 14:39:17;;;;;;;;;;;;;;;21.83;30.52;94899.34;10440099;28;1833;-39
2022/01/05 14:44:24;;;;;;;;;;;;;;;21.92;29.75;94905.44;10437637;28;1875;-41
2022/01/05 14:49:24;;;;;;;;;;;;;;;21.99;29.58;94910.31;10429159;28;1859;-41
2022/01/05 14:54:25;;;;;;;;;;;;;;;22.04;29.24;94908.31;10438995;28;1931;-39
2022/01/05 14:59:26;;;;;;;;;;;;;;;22.08;29.09;94917.19;10434820;28;2042;-40
2022/01/05 15:04:26;;;;;;;;;;;;;;;22.11;29.53;94924.50;10421561;28;1836;-41
2022/01/05 15:09:27;;;;;;;;;;;;;;;22.14;29.35;94923.09;10429149;28;1856;-40
2022/01/05 15:14:27;;;;;;;;;;;;;;;22.17;29.14;94923.28;10435375;28;1902;-44
2022/01/05 15:19:28;;;;;;;;;;;;;;;22.19;29.50;94934.31;10433491;28;1818;-45
2022/01/05 15:24:28;;;;;;;;;;;;;;;22.19;29.16;94926.41;10440195;28;1795;-40
2022/01/05 15:29:29;;;;;;;;;;;;;;;22.20;29.19;94927.94;10439186;28;1818;-43
2022/01/05 15:34:29;;;;;;;;;;;;;;;22.22;29.28;94933.72;10422181;28;1969;-40
2022/01/05 15:39:30;;;;;;;;;;;;;;;22.21;29.10;94940.09;10437471;28;1691;-40
2022/01/05 15:44:30;;;;;;;;;;;;;;;22.24;29.32;94950.03;10436105;28;1789;-42
2022/01/05 15:49:31;;;;;;;;;;;;;;;22.23;29.15;94952.97;10434434;28;1796;-46
2022/01/05 15:54:31;;;;;;;;;;;;;;;22.25;29.20;94975.34;10437763;28;1975;-43
2022/01/05 16:04:51;;;;;;;;;;;;;;;22.25;29.07;94990.41;10432158;28;1793;-40
2022/01/05 16:09:51;;;;;;;;;;;;;;;22.26;28.89;95003.28;10437012;28;1837;-39
2022/01/05 16:14:53;;;;;;;;;;;;;;;22.27;28.69;95009.38;10436922;28;1898;-42
2022/01/05 16:19:53;;;;;;;;;;;;;;;22.27;29.08;95014.66;10428852;28;1885;-41
2022/01/05 16:24:54;;;;;;;;;;;;;;;22.27;29.00;95026.00;10434840;28;1839;-42
2022/01/05 16:29:54;;;;;;;;;;;;;;;22.26;28.94;95037.63;10450299;28;2889;-44
2022/01/05 16:34:55;;;;;;;;;;;;;;;22.28;29.06;95043.38;10418051;28;1963;-43
2022/01/05 16:39:56;;;;;;;;;;;;;;;22.23;28.56;95043.50;10444949;28;1971;-43
2022/01/05 16:44:58;;;;;;;;;;;;;;;22.13;28.98;95050.88;10436048;28;1831;-43
2022/01/05 16:49:58;;;;;;;;;;;;;;;21.98;28.38;95036.19;10431285;28;1801;-43
2022/01/05 16:55:11;;;;;;;;;;;;;;;21.86;28.33;95034.06;10437969;28;1934;-44
2022/01/05 17:00:28;;;;;;;;;;;;;;;21.77;28.60;95040.31;10434004;28;1762;-44
2022/01/05 17:05:28;;;;;;;;;;;;;;;21.69;28.71;95051.59;10437913;23;1907;-72
2022/01/05 17:10:29;;;;;;;;;;;;;;;21.60;28.82;95054.13;10478099;28;1857;-71
2022/01/05 17:15:29;;;;;;;;;;;;;;;21.54;28.61;95060.59;10463346;28;2183;-72
2022/01/05 17:20:30;;;;;;;;;;;;;;;21.49;29.29;95070.47;10453376;22;3737;-61
2022/01/05 17:25:31;;;;;;;;;;;;;;;21.45;28.75;95074.78;10411667;28;2151;-61
2022/01/05 17:30:31;;;;;;;;;;;;;;;21.41;28.66;95073.81;10386748;28;2021;-63
2022/01/05 17:35:33;;;;;;;;;;;;;;;21.36;28.71;95076.53;10396233;28;1918;-63
2022/01/05 17:40:33;;;;;;;;;;;;;;;21.34;28.95;95082.09;10390225;28;1853;-60
2022/01/05 17:45:34;;;;;;;;;;;;;;;21.32;29.30;95097.44;10388522;28;1898;-61
2022/01/05 17:50:34;;;;;;;;;;;;;;;21.30;28.64;95110.13;10386737;28;1912;-63
2022/01/05 17:55:37;;;;;;;;;;;;;;;21.27;28.93;95117.84;10394694;28;2234;-62
2022/01/05 18:00:40;;;;;;;;;;;;;;;21.25;28.76;95114.69;10387281;28;1844;-63
2022/01/05 18:05:40;;;;;;;;;;;;;;;21.23;29.28;95132.66;10390510;28;2006;-63
2022/01/05 18:10:41;;;;;;;;;;;;;;;21.20;28.67;95120.88;10368840;28;1841;-60
2022/01/05 18:15:41;;;;;;;;;;;;;;;21.17;28.53;95131.97;10387682;28;1977;-62
2022/01/05 18:20:42;;;;;;;;;;;;;;;21.17;28.69;95123.28;10390074;28;1841;-62
2022/01/05 18:25:42;;;;;;;;;;;;;;;21.16;28.97;95134.91;10387232;28;1854;-63
2022/01/05 18:30:43;;;;;;;;;;;;;;;21.13;28.95;95146.03;10387718;28;1795;-63
2022/01/05 18:35:43;;;;;;;;;;;;;;;21.11;28.86;95132.38;10388542;28;1967;-63
2022/01/05 18:40:44;;;;;;;;;;;;;;;21.10;28.48;95125.53;10390571;28;1779;-63
2022/01/05 18:45:44;;;;;;;;;;;;;;;21.11;28.97;95132.38;10389604;28;1849;-63
2022/01/05 18:50:44;;;;;;;;;;;;;;;21.11;29.55;95142.91;10385535;28;1880;-62
2022/01/05 18:55:46;;;;;;;;;;;;;;;21.06;28.75;95147.19;10388582;28;1938;-63
2022/01/05 19:00:46;;;;;;;;;;;;;;;21.02;28.68;95138.31;10383494;28;1813;-63
2022/01/05 19:05:47;;;;;;;;;;;;;;;21.02;28.52;95134.88;10387324;28;1803;-63
2022/01/05 19:10:47;;;;;;;;;;;;;;;21.02;28.78;95145.41;10388769;28;1911;-63
2022/01/05 19:15:48;;;;;;;;;;;;;;;21.02;28.91;95138.31;10394645;28;1826;-63
2022/01/05 19:20:48;;;;;;;;;;;;;;;21.00;28.64;95140.41;10389218;28;1806;-63
2022/01/05 19:25:50;;;;;;;;;;;;;;;21.01;29.09;95142.00;10389575;28;1929;-63
2022/01/05 19:30:50;;;;;;;;;;;;;;;20.98;28.33;95134.66;10385342;28;1954;-63
2022/01/05 19:35:51;;;;;;;;;;;;;;;20.98;28.51;95147.84;10386313;28;1841;-64
2022/01/05 19:40:52;;;;;;;;;;;;;;;20.97;29.18;95150.75;10385091;28;1978;-63
2022/01/05 19:45:52;;;;;;;;;;;;;;;20.96;28.31;95147.34;10385133;28;1858;-63
2022/01/05 19:51:02;;;;;;;;;;;;;;;20.95;28.67;95156.34;10388322;28;1915;-63
2022/01/05 19:56:41;;;;;;;;;;;;;;;20.93;28.47;95136.59;10386181;28;1946;-63
2022/01/05 20:01:29;;;;;;;;;;;;;;;20.93;28.77;95145.31;10378936;28;2779;-62
2022/01/05 20:06:32;;;;;;;;;;;;;;;20.91;28.50;95157.19;10368465;28;1888;-63
2022/01/05 20:11:32;;;;;;;;;;;;;;;20.90;28.34;95152.97;10389726;28;1918;-63
2022/01/05 20:16:33;;;;;;;;;;;;;;;20.89;28.48;95151.44;10373532;28;1919;-63
2022/01/05 20:21:34;;;;;;;;;;;;;;;20.88;28.17;95155.13;10381552;28;1917;-63
2022/01/05 20:26:36;;;;;;;;;;;;;;;20.86;28.52;95165.97;10384943;28;1809;-63
2022/01/05 20:31:37;;;;;;;;;;;;;;;20.86;28.28;95149.38;10384035;28;1913;-62
2022/01/05 20:36:38;;;;;;;;;;;;;;;20.85;28.24;95155.72;10389258;28;1880;-62
2022/01/05 20:41:38;;;;;;;;;;;;;;;20.87;28.40;95167.53;10379440;28;1804;-62
2022/01/05 20:46:39;;;;;;;;;;;;;;;20.83;28.25;95177.09;10388759;28;1896;-63
2022/01/05 20:51:39;;;;;;;;;;;;;;;20.84;28.47;95181.28;10384162;28;1914;-62
2022/01/05 20:56:39;;;;;;;;;;;;;;;20.82;28.34;95172.88;10390658;28;1961;-62
2022/01/05 21:01:40;;;;;;;;;;;;;;;20.83;28.21;95171.03;10383018;28;1926;-62
2022/01/05 21:06:40;;;;;;;;;;;;;;;20.81;28.22;95168.66;10388291;28;1847;-63
2022/01/05 21:11:40;;;;;;;;;;;;;;;20.77;27.72;95167.69;10387241;28;1985;-62
2022/01/05 21:16:43;;;;;;;;;;;;;;;20.83;28.03;95168.41;10378700;28;1854;-62
2022/01/05 21:21:45;;;;;;;;;;;;;;;20.78;28.16;95166.63;10369000;28;1868;-62
2022/01/05 21:26:46;;;;;;;;;;;;;;;20.78;28.26;95169.25;10380855;28;2314;-63
2022/01/05 21:31:46;;;;;;;;;;;;;;;20.78;28.07;95177.16;10384890;28;1969;-62
2022/01/05 21:36:47;;;;;;;;;;;;;;;20.77;28.25;95175.59;10383690;28;1887;-62
2022/01/05 21:41:47;;;;;;;;;;;;;;;20.77;28.50;95174.81;10384732;28;1754;-62
2022/01/05 21:46:48;;;;;;;;;;;;;;;20.77;28.04;95159.78;10386593;28;1948;-64
2022/01/05 21:51:49;;;;;;;;;;;;;;;20.73;27.59;95164.06;10374913;28;1930;-62
2022/01/05 21:56:50;;;;;;;;;;;;;;;20.71;27.85;95160.94;10387479;28;1829;-62
2022/01/05 22:01:50;;;;;;;;;;;;;;;20.72;27.79;95157.25;10392719;28;1847;-62
2022/01/05 22:06:51;;;;;;;;;;;;;;;20.71;28.22;95152.28;10392560;28;1810;-62
2022/01/05 22:11:51;;;;;;;;;;;;;;;20.70;28.16;95151.47;10392280;28;1970;-62
2022/01/05 22:16:51;;;;;;;;;;;;;;;20.70;27.86;95166.50;10389489;28;1838;-63
2022/01/05 22:21:52;;;;;;;;;;;;;;;20.69;27.88;95178.88;10408081;28;1920;-62
2022/01/05 22:26:52;;;;;;;;;;;;;;;20.68;27.88;95179.97;10390642;28;1855;-62
2022/01/05 22:31:53;;;;;;;;;;;;;;;20.70;27.77;95182.28;10394604;28;1903;-61
2022/01/05 22:36:54;;;;;;;;;;;;;;;20.69;27.75;95181.50;10387012;28;1858;-62
2022/01/05 22:41:54;;;;;;;;;;;;;;;20.69;28.08;95189.41;10388587;28;1821;-61
2022/01/05 22:46:55;;;;;;;;;;;;;;;20.67;28.14;95167.84;10371866;28;1822;-63
2022/01/05 22:51:55;;;;;;;;;;;;;;;20.67;27.90;95190.78;10391189;28;1970;-62
2022/01/05 22:56:56;;;;;;;;;;;;;;;20.66;27.90;95189.22;10386898;28;1807;-62
2022/01/05 23:01:56;;;;;;;;;;;;;;;20.65;27.88;95198.94;10394426;28;1790;-62
2022/01/05 23:06:56;;;;;;;;;;;;;;;20.63;27.96;95198.47;10389022;28;1853;-62
2022/01/05 23:11:57;;;;;;;;;;;;;;;20.63;27.96;95208.22;10390714;28;1980;-63
2022/01/05 23:16:58;;;;;;;;;;;;;;;20.63;27.73;95218.75;10446967;23;1981;-47
2022/01/05 23:21:58;;;;;;;;;;;;;;;20.60;27.82;95222.75;10424531;28;1930;-47
2022/01/05 23:26:59;;;;;;;;;;;;;;;20.60;27.77;95220.13;10394057;28;2267;-45
2022/01/05 23:31:59;;;;;;;;;;;;;;;20.59;27.51;95223.00;10388555;28;1973;-48
2022/01/05 23:37:00;;;;;;;;;;;;;;;20.58;27.54;95235.41;10390690;28;1874;-47
2022/01/05 23:42:00;;;;;;;;;;;;;;;20.58;27.67;95229.34;10394907;28;2327;-45
2022/01/05 23:47:00;;;;;;;;;;;;;;;20.57;27.86;95233.84;10392817;28;1782;-50
2022/01/05 23:52:01;;;;;;;;;;;;;;;20.58;27.61;95224.09;10388468;28;1906;-48
2022/01/05 23:57:02;;;;;;;;;;;;;;;20.56;27.84;95232.28;10388800;28;1901;-49
